New Mines, Pennsylvania
Current Conditions -  °F | °C
As of 1:58 PM on Monday 20 Oct 2014 (Local Time) from KMUI Reporting Station
Overcast Overcast  
Wind Chill: 61°   Ceiling: 16000
Heat Index: 61°   Visibility: 10mi
Dew Point: 41°   Wind: 16mph
Humidity: 48%   Direction: 180°S
Pressure: 29.98"   Gusts: 17mph
Location:  40.6756°N, 76.3278°W
Report Text: KMUI 201758Z AUTO 18014G15KT 10SM OVC160 16/05 A2998 RMK AO2 SLP156 T01590050 10159 20008 $
Loading
Personal Weather Stations






























Interactive Weather Map
Tropical Storm Tracking
New forecast layout! Learn more

10-Day Weather Forecast

Advertisements
Track Severe Weather on mobile